createdAt,value
2022-09-17T00:05:02.044Z,9.12
2022-09-17T00:10:05.197Z,9.14
2022-09-17T00:15:09.139Z,9.16
2022-09-17T00:20:13.479Z,9.17
2022-09-17T00:25:16.534Z,9.21
2022-09-17T00:30:19.223Z,9.26
2022-09-17T00:35:23.259Z,9.24
2022-09-17T00:40:26.110Z,9.25
2022-09-17T00:45:29.999Z,9.28
2022-09-17T00:50:37.498Z,9.26
2022-09-17T00:55:42.159Z,9.29
2022-09-17T01:00:45.598Z,9.26
2022-09-17T01:05:52.742Z,9.28
2022-09-17T01:11:14.566Z,9.29
2022-09-17T01:16:26.845Z,9.29
2022-09-17T01:21:55.055Z,9.30
2022-09-17T01:27:25.219Z,9.26
2022-09-17T01:32:36.099Z,9.21
2022-09-17T01:37:48.006Z,9.20
2022-09-17T01:42:54.865Z,9.22
2022-09-17T01:48:05.112Z,9.20
2022-09-17T01:53:09.970Z,9.17
2022-09-17T01:58:17.203Z,9.21
2022-09-17T02:03:26.427Z,9.19
2022-09-17T02:08:34.804Z,9.22
2022-09-17T02:13:44.659Z,9.24
2022-09-17T02:18:55.732Z,9.23
2022-09-17T02:24:07.099Z,9.24
2022-09-17T02:29:15.401Z,9.25
2022-09-17T02:34:21.409Z,9.25
2022-09-17T02:39:24.080Z,9.29
2022-09-17T02:44:38.934Z,9.31
2022-09-17T02:50:02.714Z,9.30
2022-09-17T02:55:13.641Z,9.29
2022-09-17T03:00:20.201Z,9.29
2022-09-17T03:05:26.741Z,9.25
2022-09-17T03:10:33.395Z,9.19
2022-09-17T03:15:36.152Z,9.14
2022-09-17T03:20:40.209Z,9.13
2022-09-17T03:25:42.933Z,9.12
2022-09-17T03:30:47.483Z,9.12
2022-09-17T03:35:51.579Z,9.10
2022-09-17T03:41:01.291Z,9.10
2022-09-17T03:46:04.522Z,9.12
2022-09-17T03:51:08.711Z,9.15
2022-09-17T03:56:11.445Z,9.15
2022-09-17T04:01:14.754Z,9.16
2022-09-17T04:06:18.997Z,9.23
2022-09-17T04:11:21.794Z,9.24
2022-09-17T04:16:24.576Z,9.21
2022-09-17T04:21:28.716Z,9.27
2022-09-17T04:26:31.470Z,9.29
2022-09-17T04:31:34.546Z,9.29
2022-09-17T04:36:38.718Z,9.29
2022-09-17T04:41:41.503Z,9.31
2022-09-17T04:46:44.249Z,9.33
2022-09-17T04:51:48.355Z,9.33
2022-09-17T04:56:51.144Z,9.34
2022-09-17T05:01:53.966Z,9.35
2022-09-17T05:06:58.342Z,9.34
2022-09-17T05:12:01.046Z,9.38
2022-09-17T05:17:03.741Z,9.38
2022-09-17T05:22:07.835Z,9.41
2022-09-17T05:27:10.520Z,9.42
2022-09-17T05:32:13.189Z,9.45
2022-09-17T05:37:17.218Z,9.51
2022-09-17T05:42:19.979Z,9.56
2022-09-17T05:47:22.697Z,9.54
2022-09-17T05:52:29.427Z,9.60
2022-09-17T05:57:32.147Z,9.59
2022-09-17T06:02:34.901Z,9.61
2022-09-17T06:07:39.659Z,9.64
2022-09-17T06:12:42.420Z,9.66
2022-09-17T06:17:45.229Z,9.69
2022-09-17T06:22:49.463Z,9.74
2022-09-17T06:27:52.223Z,9.78
2022-09-17T06:32:55.107Z,9.82
2022-09-17T06:37:59.176Z,9.95
2022-09-17T06:43:01.955Z,10.04
2022-09-17T06:48:06.187Z,10.07
2022-09-17T06:53:11.075Z,10.12
2022-09-17T06:58:13.844Z,10.15
2022-09-17T07:03:21.162Z,10.17
2022-09-17T07:08:27.666Z,10.17
2022-09-17T07:13:30.442Z,10.22
2022-09-17T07:18:34.054Z,10.42
2022-09-17T07:23:38.705Z,11.03
2022-09-17T07:28:42.218Z,11.03
2022-09-17T07:33:45.919Z,10.96
2022-09-17T07:38:50.075Z,10.89
2022-09-17T07:43:54.629Z,10.84
2022-09-17T07:48:57.387Z,11.14
2022-09-17T07:54:02.255Z,11.66
2022-09-17T07:59:05.246Z,12.24
2022-09-17T08:04:08.233Z,12.45
2022-09-17T08:09:12.743Z,12.32
2022-09-17T08:14:16.612Z,12.81
2022-09-17T08:19:20.275Z,12.90
2022-09-17T08:24:24.882Z,12.88
2022-09-17T08:29:29.323Z,12.43
2022-09-17T08:34:34.769Z,11.69
2022-09-17T08:39:38.898Z,11.50
2022-09-17T08:44:46.070Z,11.57
2022-09-17T08:49:53.738Z,11.54
2022-09-17T08:55:06.560Z,11.64
2022-09-17T09:00:12.131Z,11.82
2022-09-17T09:05:18.393Z,11.66
2022-09-17T09:10:26.377Z,11.53
2022-09-17T09:15:37.537Z,11.43
2022-09-17T09:20:49.231Z,11.53
2022-09-17T09:26:01.329Z,11.76
2022-09-17T09:31:17.763Z,11.85
2022-09-17T09:36:21.968Z,12.57
2022-09-17T09:41:32.766Z,12.93
2022-09-17T09:47:12.335Z,13.69
2022-09-17T09:52:30.129Z,13.53
2022-09-17T09:57:41.207Z,13.23
2022-09-17T10:02:44.307Z,14.24
2022-09-17T10:07:47.263Z,14.66
2022-09-17T10:13:06.728Z,14.86
2022-09-17T10:18:17.797Z,14.47
2022-09-17T10:23:21.971Z,13.45
2022-09-17T10:28:31.411Z,12.67
2022-09-17T10:33:36.877Z,12.38
2022-09-17T10:38:41.612Z,13.32
2022-09-17T10:43:46.214Z,14.39
2022-09-17T10:49:00.531Z,14.92
2022-09-17T10:54:16.560Z,13.73
2022-09-17T10:59:46.787Z,13.53
2022-09-17T11:04:56.858Z,13.35
2022-09-17T11:10:09.104Z,13.78
2022-09-17T11:15:30.867Z,15.05
2022-09-17T11:20:54.091Z,14.10
2022-09-17T11:26:01.021Z,14.02
2022-09-17T11:31:24.009Z,15.07
2022-09-17T11:36:31.864Z,15.52
2022-09-17T11:41:41.208Z,16.49
2022-09-17T11:46:47.745Z,15.80
2022-09-17T11:51:56.422Z,15.11
2022-09-17T11:57:09.849Z,15.29
2022-09-17T12:02:23.364Z,14.86
2022-09-17T12:07:35.836Z,14.55
2022-09-17T12:12:50.146Z,15.97
2022-09-17T12:18:30.515Z,18.53
2022-09-17T12:23:38.574Z,19.67
2022-09-17T12:28:52.318Z,17.61
2022-09-17T12:34:02.755Z,16.67
2022-09-17T12:39:30.572Z,18.80
2022-09-17T12:45:09.096Z,17.18
2022-09-17T12:50:21.616Z,18.39
2022-09-17T12:55:37.577Z,16.04
2022-09-17T13:00:45.781Z,15.01
2022-09-17T13:06:17.062Z,13.99
2022-09-17T13:11:43.752Z,13.54
2022-09-17T13:16:54.740Z,13.70
2022-09-17T13:22:07.283Z,13.74
2022-09-17T13:27:22.321Z,12.77
2022-09-17T13:32:47.713Z,12.35
2022-09-17T13:37:58.900Z,12.16
2022-09-17T13:43:10.240Z,12.44
2022-09-17T13:48:21.020Z,12.48
2022-09-17T13:53:28.178Z,12.84
2022-09-17T13:58:33.327Z,12.60
2022-09-17T14:03:56.800Z,12.84
2022-09-17T14:09:03.199Z,12.94
2022-09-17T14:14:49.618Z,12.93
2022-09-17T14:19:55.553Z,13.67
2022-09-17T14:25:00.102Z,13.81
2022-09-17T14:30:13.343Z,14.13
2022-09-17T14:35:21.101Z,13.59
2022-09-17T14:40:26.305Z,13.22
2022-09-17T14:45:33.386Z,12.79
2022-09-17T14:50:36.929Z,12.32
2022-09-17T14:55:42.558Z,11.63
2022-09-17T15:00:53.201Z,11.21
2022-09-17T15:05:56.165Z,11.06
2022-09-17T15:11:03.338Z,11.16
2022-09-17T15:16:13.269Z,11.04
2022-09-17T15:21:33.223Z,11.05
2022-09-17T15:26:41.002Z,10.88
2022-09-17T15:31:43.852Z,10.72
2022-09-17T15:37:05.075Z,11.05
2022-09-17T15:42:20.051Z,11.44
2022-09-17T15:47:51.571Z,11.79
2022-09-17T15:53:12.833Z,11.91
2022-09-17T15:58:24.568Z,11.69
2022-09-17T16:04:08.392Z,11.48
2022-09-17T16:09:47.788Z,10.51
2022-09-17T16:14:53.657Z,9.90
2022-09-17T16:19:57.252Z,9.87
2022-09-17T16:24:59.973Z,9.75
2022-09-17T16:30:14.688Z,10.09
2022-09-17T16:35:19.597Z,10.20
2022-09-17T16:40:25.162Z,10.10
2022-09-17T16:45:29.395Z,10.01
2022-09-17T16:50:32.674Z,9.92
2022-09-17T16:55:35.735Z,9.77
2022-09-17T17:00:43.022Z,9.77
2022-09-17T17:05:45.621Z,9.73
2022-09-17T17:10:50.619Z,9.66
2022-09-17T17:15:55.082Z,9.52
2022-09-17T17:20:58.113Z,9.52
2022-09-17T17:26:00.905Z,9.42
2022-09-17T17:31:05.933Z,9.39
2022-09-17T17:36:08.839Z,9.31
2022-09-17T17:41:13.040Z,9.28
2022-09-17T17:46:17.149Z,9.20
2022-09-17T17:51:20.036Z,9.12
2022-09-17T17:56:23.432Z,9.07
2022-09-17T18:01:29.469Z,8.98
2022-09-17T18:06:32.488Z,8.92
2022-09-17T18:11:36.193Z,8.82
2022-09-17T18:16:40.441Z,8.79
2022-09-17T18:21:43.241Z,8.73
2022-09-17T18:26:47.482Z,8.68
2022-09-17T18:31:52.117Z,8.66
2022-09-17T18:36:55.358Z,8.65
2022-09-17T18:41:58.219Z,8.63
2022-09-17T18:47:02.703Z,8.59
2022-09-17T18:52:05.523Z,8.63
2022-09-17T18:57:08.251Z,8.59
2022-09-17T19:02:13.993Z,8.49
2022-09-17T19:07:16.861Z,8.50
2022-09-17T19:12:19.810Z,8.59
2022-09-17T19:17:24.011Z,8.61
2022-09-17T19:22:27.221Z,8.61
2022-09-17T19:27:31.011Z,8.63
2022-09-17T19:32:35.399Z,8.65
2022-09-17T19:37:38.200Z,8.67
2022-09-17T19:42:41.020Z,8.72
2022-09-17T19:47:45.197Z,8.77
2022-09-17T19:52:47.930Z,8.83
2022-09-17T19:57:50.840Z,8.84
2022-09-17T20:02:55.027Z,8.84
2022-09-17T20:07:58.117Z,8.80
2022-09-17T20:13:00.904Z,8.82
2022-09-17T20:18:05.304Z,8.86
2022-09-17T20:23:08.172Z,8.88
2022-09-17T20:28:10.893Z,8.94
2022-09-17T20:33:15.149Z,8.96
2022-09-17T20:39:09.565Z,9.00
2022-09-17T20:43:42.199Z,9.06
2022-09-17T20:48:46.609Z,9.09
2022-09-17T20:53:50.057Z,9.12
2022-09-17T20:59:00.062Z,9.20
2022-09-17T21:04:08.674Z,9.28
2022-09-17T21:09:16.031Z,9.34
2022-09-17T21:14:20.681Z,9.42
2022-09-17T21:19:25.403Z,9.45
2022-09-17T21:24:28.508Z,9.49
2022-09-17T21:29:31.275Z,9.53
2022-09-17T21:34:35.401Z,9.54
2022-09-17T21:39:38.931Z,9.53
2022-09-17T21:44:41.798Z,9.52
2022-09-17T21:49:45.859Z,9.56
2022-09-17T21:54:48.622Z,9.57
2022-09-17T21:59:51.294Z,9.58
2022-09-17T22:04:55.382Z,9.60
2022-09-17T22:09:58.148Z,9.62
2022-09-17T22:15:00.941Z,9.66
2022-09-17T22:20:06.629Z,9.64
2022-09-17T22:25:10.549Z,9.67
2022-09-17T22:30:13.623Z,9.68
2022-09-17T22:35:17.706Z,9.70
2022-09-17T22:40:21.044Z,9.71
2022-09-17T22:45:25.077Z,9.70
2022-09-17T22:50:29.199Z,9.73
2022-09-17T22:55:31.967Z,9.73
2022-09-17T23:00:34.903Z,9.74
2022-09-17T23:05:39.102Z,9.75
2022-09-17T23:10:42.438Z,9.75
2022-09-17T23:15:48.771Z,9.77
2022-09-17T23:20:59.445Z,9.79
2022-09-17T23:26:04.251Z,9.79
2022-09-17T23:31:11.018Z,9.82
2022-09-17T23:36:16.965Z,9.81
2022-09-17T23:41:22.201Z,9.80
2022-09-17T23:46:27.211Z,9.76
2022-09-17T23:51:32.424Z,9.76
2022-09-17T23:56:35.863Z,9.73
